createdAt,value
2018-12-08T00:00:00.876Z,98056.61
2018-12-08T00:02:28.943Z,98058.34
2018-12-08T00:04:57.023Z,98044.27
2018-12-08T00:07:25.087Z,98061.48
2018-12-08T00:09:53.159Z,98067.42
2018-12-08T00:12:21.743Z,98063.26
2018-12-08T00:14:49.783Z,98071.30
2018-12-08T00:17:17.868Z,98072.73
2018-12-08T00:19:46.135Z,98074.38
2018-12-08T00:22:14.331Z,98077.19
2018-12-08T00:24:42.409Z,98080.19
2018-12-08T00:27:10.519Z,98081.12
2018-12-08T00:29:38.723Z,98071.16
2018-12-08T00:32:06.927Z,98074.11
2018-12-08T00:34:35.308Z,98065.66
2018-12-08T00:37:03.381Z,98067.42
2018-12-08T00:39:31.448Z,98063.75
2018-12-08T00:41:59.575Z,98064.50
2018-12-08T00:44:27.664Z,98063.72
2018-12-08T00:46:56.616Z,98056.13
2018-12-08T00:49:24.836Z,98054.66
2018-12-08T00:51:52.887Z,98054.38
2018-12-08T00:54:20.942Z,98060.48
2018-12-08T00:56:49.018Z,98054.16
2018-12-08T00:59:17.038Z,98061.41
2018-12-08T01:01:45.275Z,98067.73
2018-12-08T01:04:13.359Z,98083.52
2018-12-08T01:06:41.407Z,98077.45
2018-12-08T01:09:09.560Z,98079.45
2018-12-08T01:11:37.691Z,98070.25
2018-12-08T01:14:05.737Z,98066.23
2018-12-08T01:16:33.833Z,98068.64
2018-12-08T01:19:01.927Z,98085.28
2018-12-08T01:21:29.999Z,98076.94
2018-12-08T01:23:58.067Z,98081.66
2018-12-08T01:26:26.318Z,98090.98
2018-12-08T01:28:54.483Z,98082.14
2018-12-08T01:31:22.590Z,98088.31
2018-12-08T01:33:50.671Z,98084.02
2018-12-08T01:36:18.710Z,98085.16
2018-12-08T01:38:46.785Z,98086.00
2018-12-08T01:41:14.843Z,98095.44
2018-12-08T01:43:42.927Z,98098.89
2018-12-08T01:46:11.018Z,98102.30
2018-12-08T01:48:39.087Z,98088.27
2018-12-08T01:51:07.369Z,98105.09
2018-12-08T01:53:35.402Z,98090.33
2018-12-08T01:56:03.482Z,98098.33
2018-12-08T01:58:31.706Z,98099.38
2018-12-08T02:00:59.747Z,98099.96
2018-12-08T02:03:27.839Z,98101.76
2018-12-08T02:05:55.899Z,98100.91
2018-12-08T02:08:23.971Z,98113.74
2018-12-08T02:10:52.057Z,98106.62
2018-12-08T02:13:20.090Z,98101.65
2018-12-08T02:15:48.165Z,98090.55
2018-12-08T02:18:16.500Z,98106.14
2018-12-08T02:20:45.003Z,98101.27
2018-12-08T02:23:13.058Z,98093.05
2018-12-08T02:25:41.130Z,98098.06
2018-12-08T02:28:09.470Z,98098.50
2018-12-08T02:30:37.616Z,98105.06
2018-12-08T02:33:05.981Z,98097.97
2018-12-08T02:35:34.052Z,98097.28
2018-12-08T02:38:02.262Z,98099.01
2018-12-08T02:40:30.333Z,98101.25
2018-12-08T02:42:58.490Z,98094.73
2018-12-08T02:45:26.679Z,98103.94
2018-12-08T02:47:54.750Z,98105.70
2018-12-08T02:50:22.798Z,98104.16
2018-12-08T02:52:50.846Z,98116.97
2018-12-08T02:55:18.918Z,98111.42
2018-12-08T02:57:47.004Z,98120.38
2018-12-08T03:00:15.053Z,98118.92
2018-12-08T03:02:43.247Z,98118.08
2018-12-08T03:05:11.455Z,98123.01
2018-12-08T03:07:39.504Z,98120.39
2018-12-08T03:10:07.944Z,98129.45
2018-12-08T03:12:36.033Z,98120.61
2018-12-08T03:15:04.866Z,98133.72
2018-12-08T03:17:33.119Z,98137.30
2018-12-08T03:20:01.283Z,98142.09
2018-12-08T03:22:29.331Z,98134.20
2018-12-08T03:24:57.427Z,98134.14
2018-12-08T03:27:25.601Z,98133.91
2018-12-08T03:29:53.650Z,98132.50
2018-12-08T03:32:21.744Z,98130.05
2018-12-08T03:34:49.867Z,98131.53
2018-12-08T03:37:18.022Z,98138.83
2018-12-08T03:39:46.108Z,98124.23
2018-12-08T03:42:14.239Z,98134.16
2018-12-08T03:44:42.385Z,98130.61
2018-12-08T03:47:10.898Z,98122.45
2018-12-08T03:49:38.946Z,98122.64
2018-12-08T03:52:07.127Z,98132.52
2018-12-08T03:54:35.199Z,98132.36
2018-12-08T03:57:03.250Z,98126.05
2018-12-08T03:59:31.301Z,98128.83
2018-12-08T04:01:59.395Z,98129.59
2018-12-08T04:04:27.450Z,98124.84
2018-12-08T04:06:55.511Z,98127.79
2018-12-08T04:09:23.591Z,98130.16
2018-12-08T04:11:51.652Z,98122.10
2018-12-08T04:14:19.683Z,98117.10
2018-12-08T04:16:47.954Z,98119.19
2018-12-08T04:19:16.642Z,98110.75
2018-12-08T04:21:44.840Z,98115.55
2018-12-08T04:24:13.022Z,98115.53
2018-12-08T04:26:41.127Z,98106.52
2018-12-08T04:29:09.222Z,98106.66
2018-12-08T04:31:37.299Z,98113.43
2018-12-08T04:34:06.428Z,98111.97
2018-12-08T04:36:34.462Z,98106.35
2018-12-08T04:39:02.882Z,98113.61
2018-12-08T04:41:30.947Z,98097.72
2018-12-08T04:43:59.020Z,98113.22
2018-12-08T04:46:27.680Z,98112.41
2018-12-08T04:48:55.756Z,98109.91
2018-12-08T04:51:23.827Z,98102.81
2018-12-08T04:53:52.190Z,98097.53
2018-12-08T04:56:20.355Z,98088.99
2018-12-08T04:58:48.383Z,98093.43
2018-12-08T05:01:16.876Z,98100.27
2018-12-08T05:03:45.026Z,98090.30
2018-12-08T05:06:13.095Z,98105.13
2018-12-08T05:08:41.372Z,98101.44
2018-12-08T05:11:09.411Z,98108.48
2018-12-08T05:13:37.463Z,98121.01
2018-12-08T05:16:05.530Z,98121.77
2018-12-08T05:18:34.588Z,98116.96
2018-12-08T05:21:02.652Z,98113.47
2018-12-08T05:23:30.714Z,98104.82
2018-12-08T05:25:58.761Z,98103.64
2018-12-08T05:28:26.849Z,98114.00
2018-12-08T05:30:55.084Z,98123.17
2018-12-08T05:33:23.395Z,98112.44
2018-12-08T05:35:51.507Z,98121.03
2018-12-08T05:38:19.626Z,98124.17
2018-12-08T05:40:47.720Z,98116.37
2018-12-08T05:43:15.888Z,98117.53
2018-12-08T05:45:44.287Z,98108.30
2018-12-08T05:48:12.361Z,98118.67
2018-12-08T05:50:40.431Z,98106.89
2018-12-08T05:53:08.698Z,98115.81
2018-12-08T05:55:37.255Z,98105.89
2018-12-08T05:58:05.368Z,98111.95
2018-12-08T06:00:33.719Z,98103.83
2018-12-08T06:03:01.792Z,98100.17
2018-12-08T06:05:29.883Z,98093.52
2018-12-08T06:07:58.770Z,98090.48
2018-12-08T06:10:27.132Z,98074.08
2018-12-08T06:12:55.204Z,98070.66
2018-12-08T06:15:23.399Z,98073.20
2018-12-08T06:17:51.479Z,98069.17
2018-12-08T06:20:19.606Z,98067.66
2018-12-08T06:22:48.091Z,98073.60
2018-12-08T06:25:19.725Z,98065.98
2018-12-08T06:27:53.451Z,98065.84
2018-12-08T06:30:21.530Z,98070.94
2018-12-08T06:32:49.594Z,98069.52
2018-12-08T06:35:17.713Z,98073.47
2018-12-08T06:37:45.760Z,98069.17
2018-12-08T06:40:14.027Z,98070.25
2018-12-08T06:42:42.298Z,98066.13
2018-12-08T06:45:10.772Z,98057.34
2018-12-08T06:47:38.914Z,98067.97
2018-12-08T06:50:08.787Z,98052.81
2018-12-08T06:52:36.878Z,98059.86
2018-12-08T06:55:05.238Z,98053.07
2018-12-08T06:57:33.623Z,98063.20
2018-12-08T07:00:01.688Z,98058.75
2018-12-08T07:02:29.759Z,98066.80
2018-12-08T07:04:57.871Z,98074.70
2018-12-08T07:07:25.899Z,98070.25
2018-12-08T07:09:53.975Z,98059.49
2018-12-08T07:12:22.194Z,98056.63
2018-12-08T07:14:50.291Z,98060.99
2018-12-08T07:17:18.372Z,98056.56
2018-12-08T07:19:46.468Z,98060.07
2018-12-08T07:22:14.502Z,98060.09
2018-12-08T07:24:42.607Z,98057.92
2018-12-08T07:27:10.683Z,98065.03
2018-12-08T07:29:39.059Z,98065.11
2018-12-08T07:32:07.106Z,98065.36
2018-12-08T07:34:35.167Z,98075.20
2018-12-08T07:37:03.679Z,98080.64
2018-12-08T07:39:31.730Z,98085.30
2018-12-08T07:41:59.803Z,98076.88
2018-12-08T07:44:28.044Z,98078.77
2018-12-08T07:46:56.065Z,98074.65
2018-12-08T07:49:24.143Z,98067.78
2018-12-08T07:51:52.202Z,98072.14
2018-12-08T07:54:20.345Z,98076.00
2018-12-08T07:56:48.427Z,98066.56
2018-12-08T07:59:16.591Z,98059.74
2018-12-08T08:01:44.647Z,98052.40
2018-12-08T08:04:12.726Z,98049.17
2018-12-08T08:06:41.267Z,98044.97
2018-12-08T08:09:09.427Z,98033.90
2018-12-08T08:11:37.481Z,98031.06
2018-12-08T08:14:05.843Z,98035.50
2018-12-08T08:16:33.905Z,98039.45
2018-12-08T08:19:02.022Z,98026.56
2018-12-08T08:21:30.107Z,98014.27
2018-12-08T08:23:58.142Z,98016.24
2018-12-08T08:26:26.191Z,98021.89
2018-12-08T08:28:54.286Z,98032.87
2018-12-08T08:31:22.336Z,98034.67
2018-12-08T08:33:50.388Z,98024.78
2018-12-08T08:36:18.459Z,98027.53
2018-12-08T08:38:46.647Z,98026.61
2018-12-08T08:41:14.682Z,98010.97
2018-12-08T08:43:42.763Z,98018.96
2018-12-08T08:46:11.091Z,98022.23
2018-12-08T08:48:39.132Z,98019.33
2018-12-08T08:51:07.363Z,98028.02
2018-12-08T08:53:35.503Z,98019.09
2018-12-08T08:56:03.979Z,98018.72
2018-12-08T08:58:32.035Z,98017.47
2018-12-08T09:01:00.221Z,98015.95
2018-12-08T09:03:28.326Z,98035.78
2018-12-08T09:05:56.402Z,98025.17
2018-12-08T09:08:24.758Z,98020.58
2018-12-08T09:10:52.807Z,98019.25
2018-12-08T09:13:20.891Z,98020.03
2018-12-08T09:15:49.995Z,98031.97
2018-12-08T09:18:18.107Z,98034.36
2018-12-08T09:20:46.138Z,98034.11
2018-12-08T09:23:14.506Z,98034.41
2018-12-08T09:25:42.637Z,98033.31
2018-12-08T09:28:10.756Z,98025.34
2018-12-08T09:30:38.859Z,98015.22
2018-12-08T09:33:06.932Z,98032.31
2018-12-08T09:35:35.159Z,98023.14
2018-12-08T09:38:03.247Z,98013.63
2018-12-08T09:40:31.451Z,98011.45
2018-12-08T09:42:59.620Z,98018.06
2018-12-08T09:45:27.941Z,98005.70
2018-12-08T09:47:55.987Z,98012.05
2018-12-08T09:50:24.055Z,98008.59
2018-12-08T09:52:57.890Z,98013.00
2018-12-08T09:55:26.047Z,98010.39
2018-12-08T09:57:54.202Z,98031.19
2018-12-08T10:00:22.251Z,98034.33
2018-12-08T10:02:50.411Z,98023.38
2018-12-08T10:05:18.458Z,98019.20
2018-12-08T10:07:46.564Z,98030.78
2018-12-08T10:10:14.611Z,98014.33
2018-12-08T10:12:42.700Z,98010.69
2018-12-08T10:15:10.799Z,98005.03
2018-12-08T10:17:38.875Z,97991.44
2018-12-08T10:20:07.062Z,97996.36
2018-12-08T10:22:35.163Z,97992.31
2018-12-08T10:25:03.470Z,97997.01
2018-12-08T10:27:31.526Z,97993.83
2018-12-08T10:29:59.721Z,97989.30
2018-12-08T10:32:27.858Z,97986.47
2018-12-08T10:34:55.939Z,97976.81
2018-12-08T10:37:24.766Z,97987.39
2018-12-08T10:39:52.851Z,97978.59
2018-12-08T10:42:20.882Z,97980.38
2018-12-08T10:44:48.967Z,97991.66
2018-12-08T10:47:17.015Z,97980.55
2018-12-08T10:49:45.087Z,97970.84
2018-12-08T10:52:13.159Z,97969.02
2018-12-08T10:54:41.213Z,97976.92
2018-12-08T10:57:09.238Z,97971.59
2018-12-08T10:59:37.330Z,97976.41
2018-12-08T11:02:07.242Z,97968.80
2018-12-08T11:04:35.319Z,97960.20
2018-12-08T11:07:03.455Z,97972.83
2018-12-08T11:09:31.520Z,97964.69
2018-12-08T11:11:59.584Z,97970.12
2018-12-08T11:14:28.098Z,97969.06
2018-12-08T11:16:56.286Z,97978.14
2018-12-08T11:19:24.522Z,97975.98
2018-12-08T11:21:52.619Z,97973.59
2018-12-08T11:24:20.655Z,97970.35
2018-12-08T11:26:48.743Z,97963.69
2018-12-08T11:29:16.837Z,97957.38
2018-12-08T11:31:44.906Z,97973.71
2018-12-08T11:34:12.974Z,97961.92
2018-12-08T11:36:49.351Z,97972.04
2018-12-08T11:39:11.209Z,97963.88
2018-12-08T11:41:39.559Z,97968.97
2018-12-08T11:44:07.739Z,97968.55
2018-12-08T11:46:35.788Z,97955.89
2018-12-08T11:49:03.935Z,97957.36
2018-12-08T11:51:32.082Z,97969.34
2018-12-08T11:54:00.120Z,97969.05
2018-12-08T11:56:28.183Z,97969.42
2018-12-08T11:58:56.243Z,97970.09
2018-12-08T12:01:24.279Z,97971.09
2018-12-08T12:03:52.332Z,97963.11
2018-12-08T12:06:20.436Z,97963.22
2018-12-08T12:08:48.592Z,97956.38
2018-12-08T12:11:16.938Z,97962.73
2018-12-08T12:13:45.270Z,97951.48
2018-12-08T12:16:13.455Z,97956.95
2018-12-08T12:18:41.519Z,97958.63
2018-12-08T12:21:09.579Z,97953.22
2018-12-08T12:23:37.634Z,97955.12
2018-12-08T12:26:05.722Z,97944.43
2018-12-08T12:28:33.807Z,97951.50
2018-12-08T12:31:01.850Z,97940.44
2018-12-08T12:33:29.909Z,97952.84
2018-12-08T12:35:58.761Z,97935.06
2018-12-08T12:38:26.803Z,97940.42
2018-12-08T12:40:54.883Z,97926.11
2018-12-08T12:43:22.942Z,97933.92
2018-12-08T12:45:51.247Z,97930.25
2018-12-08T12:48:19.290Z,97920.76
2018-12-08T12:50:47.387Z,97931.86
2018-12-08T12:53:15.460Z,97934.13
2018-12-08T12:55:43.531Z,97928.73
2018-12-08T12:58:11.594Z,97932.92
2018-12-08T13:00:39.775Z,97939.31
2018-12-08T13:03:07.827Z,97922.41
2018-12-08T13:05:35.919Z,97929.05
2018-12-08T13:08:03.955Z,97929.81
2018-12-08T13:10:32.006Z,97921.33
2018-12-08T13:13:00.111Z,97932.52
2018-12-08T13:15:28.187Z,97939.14
2018-12-08T13:17:56.230Z,97927.94
2018-12-08T13:20:24.306Z,97926.95
2018-12-08T13:22:52.362Z,97920.09
2018-12-08T13:25:22.453Z,97921.00
2018-12-08T13:27:50.778Z,97905.80
2018-12-08T13:30:18.835Z,97896.82
2018-12-08T13:32:46.871Z,97906.05
2018-12-08T13:35:20.607Z,97899.53
2018-12-08T13:37:48.703Z,97909.67
2018-12-08T13:40:16.777Z,97911.64
2018-12-08T13:42:44.855Z,97916.47
2018-12-08T13:45:16.778Z,97909.48
2018-12-08T13:47:45.599Z,97916.94
2018-12-08T13:50:13.895Z,97915.42
2018-12-08T13:52:41.975Z,97910.95
2018-12-08T13:55:10.250Z,97919.16
2018-12-08T13:57:38.290Z,97906.70
2018-12-08T14:00:07.178Z,97914.03
2018-12-08T14:02:35.466Z,97907.36
2018-12-08T14:05:03.837Z,97910.23
2018-12-08T14:07:31.919Z,97918.19
2018-12-08T14:09:59.979Z,97915.52
2018-12-08T14:12:28.063Z,97915.81
2018-12-08T14:14:56.135Z,97921.23
2018-12-08T14:17:24.207Z,97898.94
2018-12-08T14:19:52.274Z,97918.45
2018-12-08T14:22:20.350Z,97923.09
2018-12-08T14:24:48.439Z,97915.98
2018-12-08T14:27:16.478Z,97909.48
2018-12-08T14:29:44.563Z,97909.16
2018-12-08T14:32:12.618Z,97903.27
2018-12-08T14:34:40.786Z,97883.47
2018-12-08T14:37:09.222Z,97907.94
2018-12-08T14:39:37.319Z,97902.09
2018-12-08T14:42:05.459Z,97909.17
2018-12-08T14:44:33.491Z,97892.48
2018-12-08T14:47:01.755Z,97906.72
2018-12-08T14:49:30.901Z,97918.91
2018-12-08T14:51:58.967Z,97917.07
2018-12-08T14:54:27.059Z,97915.39
2018-12-08T14:56:55.191Z,97918.71
2018-12-08T14:59:23.259Z,97907.36
2018-12-08T15:01:51.463Z,97899.83
2018-12-08T15:04:19.527Z,97897.27
2018-12-08T15:06:47.599Z,97908.65
2018-12-08T15:09:15.683Z,97913.81
2018-12-08T15:11:43.747Z,97900.39
2018-12-08T15:14:11.786Z,97918.48
2018-12-08T15:16:40.091Z,97914.17
2018-12-08T15:19:08.139Z,97912.81
2018-12-08T15:21:36.235Z,97900.67
2018-12-08T15:24:04.390Z,97890.94
2018-12-08T15:26:32.960Z,97905.41
2018-12-08T15:29:01.006Z,97914.78
2018-12-08T15:31:29.090Z,97887.16
2018-12-08T15:33:57.232Z,97890.24
2018-12-08T15:36:25.273Z,97904.69
2018-12-08T15:38:53.490Z,97907.23
2018-12-08T15:41:21.511Z,97909.08
2018-12-08T15:43:49.591Z,97898.63
2018-12-08T15:46:17.658Z,97905.94
2018-12-08T15:48:45.735Z,97902.39
2018-12-08T15:51:14.114Z,97911.41
2018-12-08T15:53:42.199Z,97897.72
2018-12-08T15:56:10.323Z,97906.39
2018-12-08T15:58:38.663Z,97906.17
2018-12-08T16:01:06.830Z,97912.68
2018-12-08T16:03:35.255Z,97891.34
2018-12-08T16:06:03.378Z,97898.30
2018-12-08T16:08:31.834Z,97909.91
2018-12-08T16:10:59.915Z,97909.66
2018-12-08T16:13:27.988Z,97898.47
2018-12-08T16:15:56.318Z,97890.11
2018-12-08T16:18:24.407Z,97902.17
2018-12-08T16:20:52.611Z,97902.22
2018-12-08T16:23:20.670Z,97893.88
2018-12-08T16:25:48.732Z,97884.75
2018-12-08T16:28:16.803Z,97881.16
2018-12-08T16:30:44.955Z,97870.78
2018-12-08T16:33:13.074Z,97859.45
2018-12-08T16:35:41.143Z,97854.52
2018-12-08T16:38:09.487Z,97859.46
2018-12-08T16:40:37.671Z,97845.09
2018-12-08T16:43:05.743Z,97847.31
2018-12-08T16:45:34.191Z,97839.50
2018-12-08T16:48:02.309Z,97837.98
2018-12-08T16:50:30.471Z,97836.95
2018-12-08T16:52:58.539Z,97838.38
2018-12-08T16:55:26.682Z,97823.03
2018-12-08T16:57:54.807Z,97821.98
2018-12-08T17:00:22.876Z,97830.28
2018-12-08T17:02:51.123Z,97827.00
2018-12-08T17:05:19.239Z,97808.34
2018-12-08T17:07:47.311Z,97815.48
2018-12-08T17:10:15.471Z,97811.55
2018-12-08T17:12:43.847Z,97806.16
2018-12-08T17:15:12.143Z,97809.66
2018-12-08T17:17:40.303Z,97806.50
2018-12-08T17:20:09.411Z,97799.36
2018-12-08T17:22:37.550Z,97798.49
2018-12-08T17:25:06.170Z,97803.77
2018-12-08T17:27:34.680Z,97798.07
2018-12-08T17:30:03.030Z,97801.33
2018-12-08T17:32:31.107Z,97786.17
2018-12-08T17:34:59.259Z,97789.75
2018-12-08T17:37:27.347Z,97783.69
2018-12-08T17:39:55.382Z,97788.59
2018-12-08T17:42:23.684Z,97774.67
2018-12-08T17:44:51.747Z,97767.58
2018-12-08T17:47:19.878Z,97773.70
2018-12-08T17:49:47.951Z,97772.95
2018-12-08T17:52:16.035Z,97766.50
2018-12-08T17:54:46.242Z,97775.30
2018-12-08T17:57:14.329Z,97769.66
2018-12-08T17:59:42.411Z,97764.24
2018-12-08T18:02:12.356Z,97755.00
2018-12-08T18:04:40.623Z,97754.79
2018-12-08T18:07:09.207Z,97730.20
2018-12-08T18:09:37.250Z,97723.05
2018-12-08T18:12:05.519Z,97720.28
2018-12-08T18:14:33.572Z,97718.62
2018-12-08T18:17:01.642Z,97709.77
2018-12-08T18:19:29.719Z,97708.92
2018-12-08T18:21:57.851Z,97701.91
2018-12-08T18:24:25.950Z,97685.15
2018-12-08T18:26:54.075Z,97678.73
2018-12-08T18:29:22.539Z,97666.23
2018-12-08T18:31:50.619Z,97672.95
2018-12-08T18:34:18.663Z,97656.95
2018-12-08T18:36:46.779Z,97649.56
2018-12-08T18:39:14.816Z,97659.84
2018-12-08T18:41:42.907Z,97637.91
2018-12-08T18:44:11.270Z,97644.30
2018-12-08T18:46:39.339Z,97628.90
2018-12-08T18:49:07.386Z,97623.45
2018-12-08T18:51:35.491Z,97629.19
2018-12-08T18:54:03.569Z,97614.27
2018-12-08T18:56:31.707Z,97609.85
2018-12-08T18:58:59.806Z,97610.13
2018-12-08T19:01:27.904Z,97591.58
2018-12-08T19:03:55.974Z,97592.07
2018-12-08T19:06:24.091Z,97578.97
2018-12-08T19:08:52.107Z,97560.63
2018-12-08T19:11:20.154Z,97577.33
2018-12-08T19:13:48.239Z,97567.55
2018-12-08T19:16:16.441Z,97562.00
2018-12-08T19:18:44.563Z,97550.00
2018-12-08T19:21:12.655Z,97550.85
2018-12-08T19:23:43.773Z,97542.91
2018-12-08T19:26:10.787Z,97524.36
2018-12-08T19:28:38.834Z,97498.27
2018-12-08T19:31:06.903Z,97515.59
2018-12-08T19:33:34.939Z,97513.61
2018-12-08T19:36:03.006Z,97516.18
2018-12-08T19:38:31.130Z,97506.64
2018-12-08T19:40:59.187Z,97497.09
2018-12-08T19:43:27.267Z,97475.56
2018-12-08T19:45:55.330Z,97498.80
2018-12-08T19:48:23.415Z,97483.70
2018-12-08T19:50:51.482Z,97489.72
2018-12-08T19:53:19.575Z,97475.53
2018-12-08T19:55:47.607Z,97455.60
2018-12-08T19:58:15.742Z,97468.73
2018-12-08T20:00:43.839Z,97467.14
2018-12-08T20:03:11.886Z,97446.36
2018-12-08T20:05:40.039Z,97431.16
2018-12-08T20:08:08.175Z,97432.09
2018-12-08T20:10:36.266Z,97418.84
2018-12-08T20:13:04.516Z,97421.10
2018-12-08T20:15:32.811Z,97410.77
2018-12-08T20:18:00.883Z,97433.63
2018-12-08T20:20:28.928Z,97421.02
2018-12-08T20:22:57.023Z,97385.48
2018-12-08T20:25:25.095Z,97404.78
2018-12-08T20:27:53.151Z,97391.03
2018-12-08T20:30:21.219Z,97378.38
2018-12-08T20:32:49.290Z,97373.70
2018-12-08T20:35:17.390Z,97352.45
2018-12-08T20:37:45.455Z,97362.02
2018-12-08T20:40:13.490Z,97352.02
2018-12-08T20:42:41.574Z,97349.91
2018-12-08T20:45:09.667Z,97319.09
2018-12-08T20:47:37.706Z,97352.03
2018-12-08T20:50:07.063Z,97324.14
2018-12-08T20:52:35.087Z,97317.37
2018-12-08T20:55:03.330Z,97310.40
2018-12-08T20:57:31.371Z,97301.17
2018-12-08T20:59:59.419Z,97289.16
2018-12-08T21:02:27.461Z,97272.13
2018-12-08T21:04:55.526Z,97257.52
2018-12-08T21:07:23.576Z,97252.70
2018-12-08T21:09:51.635Z,97248.48
2018-12-08T21:12:19.674Z,97237.29
2018-12-08T21:14:47.755Z,97230.81
2018-12-08T21:17:15.831Z,97245.27
2018-12-08T21:19:44.774Z,97234.87
2018-12-08T21:22:12.829Z,97207.61
2018-12-08T21:24:40.950Z,97210.23
2018-12-08T21:27:09.045Z,97204.25
2018-12-08T21:29:37.099Z,97210.08
2018-12-08T21:32:06.313Z,97202.45
2018-12-08T21:34:34.658Z,97194.15
2018-12-08T21:37:02.734Z,97175.83
2018-12-08T21:39:30.791Z,97159.58
2018-12-08T21:41:58.907Z,97140.77
2018-12-08T21:44:26.968Z,97129.22
2018-12-08T21:46:55.004Z,97126.45
2018-12-08T21:49:23.214Z,97129.05
2018-12-08T21:51:51.286Z,97119.16
2018-12-08T21:54:19.331Z,97115.09
2018-12-08T21:56:47.583Z,97105.99
2018-12-08T21:59:15.610Z,97102.27
2018-12-08T22:01:43.678Z,97104.87
2018-12-08T22:04:12.154Z,97054.06
2018-12-08T22:06:40.186Z,97087.03
2018-12-08T22:09:08.246Z,97092.72
2018-12-08T22:11:36.318Z,97066.72
2018-12-08T22:14:04.477Z,97065.62
2018-12-08T22:16:32.530Z,97049.86
2018-12-08T22:19:00.603Z,97050.36
2018-12-08T22:21:28.663Z,97026.31
2018-12-08T22:23:56.725Z,97031.52
2018-12-08T22:26:24.915Z,97014.97
2018-12-08T22:28:52.946Z,97004.11
2018-12-08T22:31:21.022Z,97020.33
2018-12-08T22:33:49.183Z,97016.28
2018-12-08T22:36:17.230Z,97025.55
2018-12-08T22:38:45.311Z,97031.23
2018-12-08T22:41:13.396Z,97015.14
2018-12-08T22:43:41.443Z,97044.20
2018-12-08T22:46:09.525Z,97052.33
2018-12-08T22:48:37.643Z,97084.65
2018-12-08T22:51:05.681Z,97083.52
2018-12-08T22:53:33.763Z,97043.91
2018-12-08T22:56:01.902Z,97030.41
2018-12-08T22:58:29.938Z,97046.48
2018-12-08T23:00:57.974Z,97011.73
2018-12-08T23:03:26.126Z,97050.08
2018-12-08T23:05:54.215Z,97059.31
2018-12-08T23:08:22.269Z,97052.34
2018-12-08T23:10:50.899Z,97058.02
2018-12-08T23:13:19.144Z,97051.69
2018-12-08T23:15:47.291Z,97053.30
2018-12-08T23:18:15.323Z,97054.75
2018-12-08T23:20:43.547Z,97054.30
2018-12-08T23:23:11.770Z,97027.98
2018-12-08T23:25:39.852Z,97025.55
2018-12-08T23:28:07.911Z,97027.17
2018-12-08T23:30:36.188Z,97004.58
2018-12-08T23:33:04.274Z,97029.44
2018-12-08T23:35:32.431Z,96998.23
2018-12-08T23:38:00.503Z,97012.50
2018-12-08T23:40:28.566Z,97001.44
2018-12-08T23:42:56.647Z,97009.55
2018-12-08T23:45:24.684Z,97012.64
2018-12-08T23:47:52.767Z,97022.91
2018-12-08T23:50:20.883Z,97010.88
2018-12-08T23:52:49.039Z,97012.97
2018-12-08T23:55:17.122Z,97023.36
2018-12-08T23:57:45.155Z,97025.47
